createdAt,value
2022-10-07T00:02:15.176Z,12.82
2022-10-07T00:04:47.872Z,12.81
2022-10-07T00:07:21.794Z,12.87
2022-10-07T00:09:54.243Z,12.77
2022-10-07T00:12:26.827Z,12.58
2022-10-07T00:14:59.453Z,12.82
2022-10-07T00:17:32.009Z,12.78
2022-10-07T00:20:05.988Z,12.81
2022-10-07T00:22:39.979Z,12.82
2022-10-07T00:25:12.362Z,12.82
2022-10-07T00:27:45.065Z,12.64
2022-10-07T00:30:18.274Z,12.90
2022-10-07T00:32:50.814Z,12.90
2022-10-07T00:35:23.300Z,12.87
2022-10-07T00:37:57.236Z,12.67
2022-10-07T00:40:29.729Z,12.92
2022-10-07T00:43:20.579Z,13.01
2022-10-07T00:45:56.322Z,13.03
2022-10-07T00:48:32.677Z,12.99
2022-10-07T00:51:08.441Z,13.04
2022-10-07T00:53:43.871Z,12.70
2022-10-07T00:56:17.891Z,12.91
2022-10-07T00:58:51.647Z,12.93
2022-10-07T01:01:24.359Z,12.88
2022-10-07T01:03:57.057Z,12.67
2022-10-07T01:06:30.474Z,12.65
2022-10-07T01:09:04.645Z,12.78
2022-10-07T01:11:49.090Z,12.60
2022-10-07T01:14:31.791Z,12.71
2022-10-07T01:17:10.401Z,12.68
2022-10-07T01:20:13.354Z,12.59
2022-10-07T01:22:55.483Z,12.60
2022-10-07T01:25:44.304Z,12.34
2022-10-07T01:28:23.917Z,12.51
2022-10-07T01:31:02.134Z,12.47
2022-10-07T01:33:38.989Z,12.21
2022-10-07T01:36:15.665Z,12.44
2022-10-07T01:38:54.509Z,12.35
2022-10-07T01:41:28.070Z,12.37
2022-10-07T01:44:03.399Z,12.27
2022-10-07T01:46:38.060Z,12.30
2022-10-07T01:49:11.091Z,12.26
2022-10-07T01:52:03.366Z,12.22
2022-10-07T01:54:48.935Z,12.01
2022-10-07T01:57:29.979Z,12.07
2022-10-07T02:00:08.431Z,12.07
2022-10-07T02:03:25.465Z,12.06
2022-10-07T02:06:03.757Z,11.80
2022-10-07T02:08:41.381Z,11.94
2022-10-07T02:11:19.786Z,12.01
2022-10-07T02:14:03.261Z,11.92
2022-10-07T02:16:44.928Z,11.94
2022-10-07T02:19:35.178Z,11.87
2022-10-07T02:22:09.208Z,11.68
2022-10-07T02:24:44.454Z,11.84
2022-10-07T02:27:21.005Z,11.65
2022-10-07T02:30:02.880Z,11.76
2022-10-07T02:32:41.643Z,11.79
2022-10-07T02:35:19.068Z,11.73
2022-10-07T02:37:56.435Z,11.53
2022-10-07T02:40:35.910Z,11.78
2022-10-07T02:43:15.691Z,11.60
2022-10-07T02:45:55.187Z,11.75
2022-10-07T02:48:33.654Z,11.73
2022-10-07T02:51:10.474Z,11.69
2022-10-07T02:53:43.974Z,11.69
2022-10-07T02:56:17.839Z,11.70
2022-10-07T02:58:51.224Z,11.67
2022-10-07T03:01:29.558Z,11.67
2022-10-07T03:04:03.912Z,11.64
2022-10-07T03:06:36.761Z,11.62
2022-10-07T03:09:09.495Z,11.57
2022-10-07T03:11:42.723Z,11.58
2022-10-07T03:14:15.915Z,11.56
2022-10-07T03:16:48.551Z,11.54
2022-10-07T03:19:22.573Z,11.53
2022-10-07T03:21:58.791Z,11.51
2022-10-07T03:24:31.345Z,11.45
2022-10-07T03:27:07.373Z,11.46
2022-10-07T03:29:41.801Z,11.42
2022-10-07T03:32:15.320Z,11.40
2022-10-07T03:34:50.316Z,11.40
2022-10-07T03:37:23.602Z,11.38
2022-10-07T03:39:56.369Z,11.37
2022-10-07T03:42:29.049Z,11.35
2022-10-07T03:45:02.532Z,11.33
2022-10-07T03:47:36.359Z,10.90
2022-10-07T03:50:12.822Z,11.29
2022-10-07T03:52:45.848Z,11.27
2022-10-07T03:55:18.496Z,11.27
2022-10-07T03:57:55.492Z,11.26
2022-10-07T04:00:33.278Z,11.23
2022-10-07T04:03:07.897Z,11.22
2022-10-07T04:05:42.402Z,11.17
2022-10-07T04:08:17.621Z,11.21
2022-10-07T04:10:50.403Z,11.17
2022-10-07T04:13:23.407Z,11.19
2022-10-07T04:15:57.689Z,11.19
2022-10-07T04:18:31.826Z,11.17
2022-10-07T04:21:06.003Z,11.19
2022-10-07T04:23:42.092Z,11.19
2022-10-07T04:26:15.413Z,11.18
2022-10-07T04:28:52.044Z,11.18
2022-10-07T04:31:29.754Z,11.16
2022-10-07T04:34:07.648Z,11.20
2022-10-07T04:36:45.640Z,11.17
2022-10-07T04:39:21.081Z,11.22
2022-10-07T04:42:01.229Z,11.22
2022-10-07T04:44:37.081Z,11.22
2022-10-07T04:47:13.072Z,11.26
2022-10-07T04:49:45.731Z,11.27
2022-10-07T04:52:20.655Z,11.30
2022-10-07T04:54:54.586Z,11.24
2022-10-07T04:57:27.037Z,11.33
2022-10-07T04:59:59.707Z,11.35
2022-10-07T05:02:32.325Z,11.28
2022-10-07T05:05:05.737Z,11.36
2022-10-07T05:07:39.877Z,11.38
2022-10-07T05:10:12.564Z,11.42
2022-10-07T05:12:45.193Z,11.25
2022-10-07T05:15:18.504Z,11.42
2022-10-07T05:17:54.282Z,11.49
2022-10-07T05:20:27.029Z,11.55
2022-10-07T05:23:02.452Z,11.58
2022-10-07T05:25:35.011Z,11.58
2022-10-07T05:28:07.411Z,11.64
2022-10-07T05:30:41.110Z,11.67
2022-10-07T05:33:14.390Z,11.73
2022-10-07T05:35:47.097Z,11.72
2022-10-07T05:38:21.118Z,11.80
2022-10-07T05:40:59.590Z,11.83
2022-10-07T05:43:38.215Z,11.87
2022-10-07T05:46:14.826Z,11.89
2022-10-07T05:48:54.019Z,11.93
2022-10-07T05:51:30.844Z,11.98
2022-10-07T05:54:06.230Z,11.92
2022-10-07T05:56:48.185Z,12.05
2022-10-07T05:59:22.308Z,12.09
2022-10-07T06:02:00.592Z,12.14
2022-10-07T06:04:34.041Z,12.19
2022-10-07T06:07:07.220Z,12.25
2022-10-07T06:10:00.945Z,12.29
2022-10-07T06:12:52.265Z,12.35
2022-10-07T06:15:24.926Z,12.39
2022-10-07T06:17:57.606Z,12.44
2022-10-07T06:20:33.044Z,12.47
2022-10-07T06:23:07.493Z,12.53
2022-10-07T06:25:41.640Z,12.56
2022-10-07T06:28:16.944Z,12.60
2022-10-07T06:30:49.562Z,12.62
2022-10-07T06:33:22.563Z,12.66
2022-10-07T06:35:58.833Z,12.64
2022-10-07T06:38:35.718Z,12.66
2022-10-07T06:41:13.638Z,12.61
2022-10-07T06:43:46.344Z,12.62
2022-10-07T06:46:20.867Z,12.65
2022-10-07T06:48:56.258Z,12.71
2022-10-07T06:51:30.542Z,12.78
2022-10-07T06:54:03.584Z,12.88
2022-10-07T06:56:39.912Z,13.00
2022-10-07T06:59:12.564Z,13.06
2022-10-07T07:02:03.610Z,13.07
2022-10-07T07:04:37.721Z,13.06
2022-10-07T07:07:10.482Z,13.06
2022-10-07T07:09:45.152Z,13.06
2022-10-07T07:12:19.282Z,13.07
2022-10-07T07:14:53.171Z,13.09
2022-10-07T07:17:26.868Z,13.10
2022-10-07T07:19:59.829Z,13.11
2022-10-07T07:22:32.525Z,13.13
2022-10-07T07:25:06.326Z,13.17
2022-10-07T07:27:40.319Z,13.20
2022-10-07T07:30:14.932Z,13.25
2022-10-07T07:32:49.384Z,13.24
2022-10-07T07:35:22.809Z,13.29
2022-10-07T07:37:55.633Z,13.30
2022-10-07T07:40:32.204Z,13.31
2022-10-07T07:43:07.272Z,13.33
2022-10-07T07:45:40.506Z,13.35
2022-10-07T07:48:13.570Z,13.37
2022-10-07T07:50:46.214Z,13.34
2022-10-07T07:53:18.675Z,13.29
2022-10-07T07:55:55.456Z,13.14
2022-10-07T07:58:30.570Z,13.14
2022-10-07T08:01:07.082Z,13.39
2022-10-07T08:03:43.152Z,13.39
2022-10-07T08:06:21.241Z,13.43
2022-10-07T08:08:57.466Z,13.49
2022-10-07T08:11:31.370Z,13.50
2022-10-07T08:14:08.004Z,13.51
2022-10-07T08:16:43.587Z,13.55
2022-10-07T08:19:16.074Z,13.56
2022-10-07T08:21:48.727Z,13.52
2022-10-07T08:24:28.094Z,13.64
2022-10-07T08:27:00.813Z,13.66
2022-10-07T08:29:35.763Z,13.72
2022-10-07T08:32:08.281Z,13.80
2022-10-07T08:34:40.761Z,13.83
2022-10-07T08:37:13.453Z,13.83
2022-10-07T08:39:45.862Z,13.84
2022-10-07T08:42:27.225Z,13.84
2022-10-07T08:45:01.366Z,13.83
2022-10-07T08:47:43.849Z,13.75
2022-10-07T08:50:20.342Z,13.69
2022-10-07T08:52:59.487Z,13.60
2022-10-07T08:55:39.818Z,13.77
2022-10-07T08:58:43.621Z,13.78
2022-10-07T09:01:26.114Z,13.81
2022-10-07T09:04:06.615Z,13.86
2022-10-07T09:06:43.162Z,13.89
2022-10-07T09:09:19.884Z,13.92
2022-10-07T09:11:54.888Z,13.90
2022-10-07T09:14:29.675Z,13.90
2022-10-07T09:17:13.177Z,13.84
2022-10-07T09:19:49.369Z,13.88
2022-10-07T09:22:30.791Z,13.89
2022-10-07T09:25:18.889Z,13.87
2022-10-07T09:27:52.347Z,13.97
2022-10-07T09:30:28.137Z,13.97
2022-10-07T09:33:03.674Z,14.04
2022-10-07T09:35:38.345Z,14.06
2022-10-07T09:38:10.782Z,14.06
2022-10-07T09:41:04.228Z,14.05
2022-10-07T09:43:37.315Z,14.07
2022-10-07T09:46:29.675Z,14.10
2022-10-07T09:49:04.644Z,14.02
2022-10-07T09:51:39.892Z,14.11
2022-10-07T09:54:19.904Z,14.13
2022-10-07T09:56:57.733Z,14.15
2022-10-07T09:59:31.766Z,14.19
2022-10-07T10:02:22.545Z,14.23
2022-10-07T10:04:58.024Z,14.23
2022-10-07T10:07:34.612Z,14.26
2022-10-07T10:10:18.284Z,14.24
2022-10-07T10:12:53.077Z,14.22
2022-10-07T10:15:29.579Z,14.23
2022-10-07T10:18:03.416Z,14.24
2022-10-07T10:20:43.643Z,14.20
2022-10-07T10:23:32.322Z,14.25
2022-10-07T10:26:30.817Z,14.19
2022-10-07T10:29:18.015Z,14.20
2022-10-07T10:32:09.020Z,14.19
2022-10-07T10:34:50.798Z,14.17
2022-10-07T10:37:31.142Z,14.13
2022-10-07T10:40:19.071Z,14.13
2022-10-07T10:43:01.953Z,14.12
2022-10-07T10:45:39.163Z,14.11
2022-10-07T10:48:30.813Z,14.13
2022-10-07T10:51:15.350Z,14.10
2022-10-07T10:53:58.371Z,14.15
2022-10-07T10:56:38.311Z,14.17
2022-10-07T10:59:38.891Z,14.19
2022-10-07T11:02:33.919Z,14.19
2022-10-07T11:05:13.349Z,14.20
2022-10-07T11:07:49.837Z,14.19
2022-10-07T11:10:27.321Z,14.17
2022-10-07T11:13:12.317Z,14.25
2022-10-07T11:15:48.074Z,14.23
2022-10-07T11:18:29.291Z,14.27
2022-10-07T11:21:05.123Z,14.28
2022-10-07T11:23:46.162Z,14.35
2022-10-07T11:26:26.040Z,14.34
2022-10-07T11:29:04.835Z,14.34
2022-10-07T11:31:42.720Z,14.03
2022-10-07T11:34:19.134Z,14.11
2022-10-07T11:37:00.053Z,14.36
2022-10-07T11:39:37.005Z,14.37
2022-10-07T11:42:17.120Z,14.42
2022-10-07T11:44:58.233Z,14.37
2022-10-07T11:47:35.311Z,14.41
2022-10-07T11:50:14.346Z,14.37
2022-10-07T11:52:50.285Z,14.40
2022-10-07T11:55:27.693Z,14.42
2022-10-07T11:58:04.349Z,14.42
2022-10-07T12:00:40.587Z,14.41
2022-10-07T12:03:46.766Z,14.20
2022-10-07T12:06:20.374Z,14.18
2022-10-07T12:08:53.850Z,14.33
2022-10-07T12:11:46.506Z,14.36
2022-10-07T12:14:44.280Z,14.39
2022-10-07T12:17:27.516Z,14.40
2022-10-07T12:20:33.337Z,14.44
2022-10-07T12:23:49.080Z,14.45
2022-10-07T12:26:49.827Z,14.46
2022-10-07T12:29:48.653Z,14.47
2022-10-07T12:32:47.177Z,14.47
2022-10-07T12:35:50.060Z,14.47
2022-10-07T12:38:28.837Z,14.46
2022-10-07T12:41:23.341Z,14.48
2022-10-07T12:44:04.655Z,14.48
2022-10-07T12:46:49.434Z,14.48
2022-10-07T12:49:30.347Z,14.48
2022-10-07T12:52:05.704Z,14.44
2022-10-07T12:54:44.074Z,14.45
2022-10-07T12:57:21.556Z,14.44
2022-10-07T13:00:08.191Z,14.41
2022-10-07T13:03:22.550Z,14.38
2022-10-07T13:06:27.112Z,14.39
2022-10-07T13:09:41.421Z,14.40
2022-10-07T13:12:27.694Z,14.37
2022-10-07T13:15:15.561Z,14.39
2022-10-07T13:17:53.387Z,14.36
2022-10-07T13:20:43.188Z,14.36
2022-10-07T13:23:20.056Z,14.34
2022-10-07T13:25:56.441Z,14.33
2022-10-07T13:28:37.378Z,14.32
2022-10-07T13:31:17.582Z,14.32
2022-10-07T13:33:51.548Z,14.30
2022-10-07T13:36:28.179Z,14.31
2022-10-07T13:39:12.129Z,14.30
2022-10-07T13:41:47.424Z,14.29
2022-10-07T13:44:21.538Z,14.29
2022-10-07T13:46:56.328Z,14.27
2022-10-07T13:49:33.185Z,14.26
2022-10-07T13:52:17.841Z,14.27
2022-10-07T13:54:51.540Z,14.23
2022-10-07T13:57:25.148Z,14.24
2022-10-07T14:00:00.068Z,14.16
2022-10-07T14:02:39.250Z,14.23
2022-10-07T14:05:20.414Z,14.20
2022-10-07T14:07:56.565Z,14.21
2022-10-07T14:10:31.004Z,14.21
2022-10-07T14:13:07.512Z,14.14
2022-10-07T14:15:49.619Z,14.10
2022-10-07T14:18:22.996Z,14.11
2022-10-07T14:21:06.576Z,14.15
2022-10-07T14:23:40.690Z,14.14
2022-10-07T14:26:17.794Z,14.12
2022-10-07T14:28:50.355Z,14.13
2022-10-07T14:31:45.137Z,14.12
2022-10-07T14:34:37.784Z,14.11
2022-10-07T14:37:12.186Z,14.04
2022-10-07T14:39:50.404Z,14.07
2022-10-07T14:42:25.526Z,14.07
2022-10-07T14:44:58.304Z,14.06
2022-10-07T14:47:31.694Z,14.05
2022-10-07T14:50:05.008Z,14.04
2022-10-07T14:52:44.461Z,14.04
2022-10-07T14:55:22.441Z,13.99
2022-10-07T14:57:55.407Z,14.02
2022-10-07T15:00:34.858Z,13.96
2022-10-07T15:03:11.191Z,13.99
2022-10-07T15:05:43.826Z,13.96
2022-10-07T15:08:16.457Z,13.94
2022-10-07T15:10:50.578Z,13.90
2022-10-07T15:13:23.114Z,13.91
2022-10-07T15:15:55.859Z,13.89
2022-10-07T15:18:28.336Z,13.86
2022-10-07T15:21:01.093Z,13.81
2022-10-07T15:23:33.804Z,13.77
2022-10-07T15:26:09.580Z,13.82
2022-10-07T15:28:42.199Z,13.77
2022-10-07T15:31:14.930Z,13.80
2022-10-07T15:33:47.896Z,13.80
2022-10-07T15:36:20.793Z,13.78
2022-10-07T15:38:53.690Z,13.78
2022-10-07T15:41:33.816Z,13.67
2022-10-07T15:44:07.821Z,13.76
2022-10-07T15:46:40.398Z,13.59
2022-10-07T15:49:13.609Z,13.73
2022-10-07T15:51:46.907Z,13.73
2022-10-07T15:54:20.952Z,13.71
2022-10-07T15:56:55.179Z,13.70
2022-10-07T15:59:27.728Z,13.67
2022-10-07T16:02:00.369Z,13.66
2022-10-07T16:04:33.230Z,13.56
2022-10-07T16:07:05.822Z,13.66
2022-10-07T16:09:39.114Z,13.64
2022-10-07T16:12:13.753Z,13.62
2022-10-07T16:14:47.562Z,13.62
2022-10-07T16:17:20.029Z,13.61
2022-10-07T16:19:52.632Z,13.53
2022-10-07T16:22:25.664Z,13.51
2022-10-07T16:24:58.160Z,13.55
2022-10-07T16:27:52.201Z,13.57
2022-10-07T16:30:43.003Z,13.56
2022-10-07T16:33:15.869Z,13.54
2022-10-07T16:35:48.462Z,13.48
2022-10-07T16:38:22.559Z,13.50
2022-10-07T16:40:55.245Z,13.47
2022-10-07T16:43:30.005Z,13.48
2022-10-07T16:46:06.041Z,13.48
2022-10-07T16:48:41.775Z,13.45
2022-10-07T16:51:17.678Z,13.42
2022-10-07T16:53:54.778Z,13.46
2022-10-07T16:56:27.800Z,13.45
2022-10-07T16:59:05.287Z,13.41
2022-10-07T17:01:38.293Z,13.39
2022-10-07T17:04:11.358Z,13.43
2022-10-07T17:06:45.904Z,13.38
2022-10-07T17:09:18.956Z,13.42
2022-10-07T17:11:51.925Z,13.40
2022-10-07T17:14:26.686Z,13.40
2022-10-07T17:17:00.652Z,13.30
2022-10-07T17:19:34.649Z,13.33
2022-10-07T17:22:07.271Z,13.31
2022-10-07T17:24:40.281Z,13.22
2022-10-07T17:27:12.942Z,13.23
2022-10-07T17:29:47.131Z,13.22
2022-10-07T17:32:19.723Z,13.18
2022-10-07T17:34:52.736Z,12.99
2022-10-07T17:37:26.308Z,12.90
2022-10-07T17:39:59.327Z,13.04
2022-10-07T17:42:32.115Z,13.00
2022-10-07T17:45:10.760Z,12.99
2022-10-07T17:47:44.269Z,12.96
2022-10-07T17:50:17.623Z,12.85
2022-10-07T17:52:50.368Z,12.76
2022-10-07T17:55:23.125Z,12.84
2022-10-07T17:57:55.825Z,12.77
2022-10-07T18:00:31.490Z,12.64
2022-10-07T18:03:04.916Z,12.71
2022-10-07T18:05:37.521Z,12.60
2022-10-07T18:08:10.363Z,12.46
2022-10-07T18:10:43.146Z,12.47
2022-10-07T18:13:34.407Z,12.46
2022-10-07T18:16:09.032Z,12.39
2022-10-07T18:18:45.003Z,12.19
2022-10-07T18:21:17.993Z,12.26
2022-10-07T18:23:50.879Z,12.13
2022-10-07T18:26:24.907Z,12.08
2022-10-07T18:28:58.337Z,12.09
2022-10-07T18:31:32.548Z,12.05
2022-10-07T18:34:05.303Z,12.04
2022-10-07T18:36:38.149Z,11.93
2022-10-07T18:39:12.453Z,11.90
2022-10-07T18:41:45.245Z,11.94
2022-10-07T18:44:18.028Z,11.92
2022-10-07T18:46:52.273Z,11.88
2022-10-07T18:49:26.583Z,11.80
2022-10-07T18:51:59.780Z,11.80
2022-10-07T18:54:32.601Z,11.75
2022-10-07T18:57:05.613Z,11.73
2022-10-07T18:59:38.856Z,11.67
2022-10-07T19:02:13.678Z,11.63
2022-10-07T19:04:46.805Z,11.61
2022-10-07T19:07:20.046Z,11.48
2022-10-07T19:09:53.412Z,11.50
2022-10-07T19:12:44.997Z,11.47
2022-10-07T19:15:19.392Z,11.41
2022-10-07T19:17:53.675Z,11.39
2022-10-07T19:20:26.853Z,11.29
2022-10-07T19:23:00.348Z,11.29
2022-10-07T19:25:48.336Z,11.29
2022-10-07T19:28:21.877Z,11.23
2022-10-07T19:30:55.294Z,11.20
2022-10-07T19:33:29.580Z,11.18
2022-10-07T19:36:02.545Z,11.08
2022-10-07T19:38:37.361Z,11.08
2022-10-07T19:41:12.008Z,11.06
2022-10-07T19:43:45.300Z,11.05
2022-10-07T19:46:19.468Z,11.02
2022-10-07T19:48:58.557Z,10.98
2022-10-07T19:51:33.036Z,11.00
2022-10-07T19:54:11.090Z,10.98
2022-10-07T19:56:45.460Z,10.96
2022-10-07T19:59:18.911Z,10.93
2022-10-07T20:01:52.164Z,10.88
2022-10-07T20:04:26.606Z,10.84
2022-10-07T20:06:59.349Z,10.77
2022-10-07T20:09:32.291Z,10.72
2022-10-07T20:12:05.303Z,10.76
2022-10-07T20:14:38.091Z,10.70
2022-10-07T20:17:10.702Z,10.62
2022-10-07T20:19:44.870Z,10.70
2022-10-07T20:22:17.415Z,10.66
2022-10-07T20:24:49.943Z,10.67
2022-10-07T20:27:22.585Z,10.66
2022-10-07T20:29:58.333Z,10.60
2022-10-07T20:32:34.088Z,10.61
2022-10-07T20:35:10.825Z,10.56
2022-10-07T20:37:43.367Z,10.53
2022-10-07T20:40:34.702Z,10.52
2022-10-07T20:43:07.161Z,10.47
2022-10-07T20:45:56.404Z,10.44
2022-10-07T20:48:29.659Z,10.44
2022-10-07T20:51:08.521Z,10.37
2022-10-07T20:53:41.044Z,10.42
2022-10-07T20:56:13.724Z,10.40
2022-10-07T20:58:46.545Z,10.42
2022-10-07T21:01:19.446Z,10.40
2022-10-07T21:03:52.191Z,10.42
2022-10-07T21:06:26.208Z,10.41
2022-10-07T21:08:58.864Z,10.33
2022-10-07T21:11:31.618Z,10.39
2022-10-07T21:14:04.592Z,10.37
2022-10-07T21:16:37.629Z,10.34
2022-10-07T21:19:11.191Z,10.32
2022-10-07T21:21:45.200Z,10.31
2022-10-07T21:24:17.680Z,10.25
2022-10-07T21:26:50.460Z,10.28
2022-10-07T21:29:22.922Z,10.13
2022-10-07T21:31:55.588Z,10.25
2022-10-07T21:34:29.851Z,10.21
2022-10-07T21:37:04.906Z,10.16
2022-10-07T21:39:38.359Z,10.13
2022-10-07T21:42:10.981Z,10.02
2022-10-07T21:44:44.443Z,10.08
2022-10-07T21:47:17.028Z,10.03
2022-10-07T21:49:49.489Z,9.96
2022-10-07T21:52:23.573Z,9.85
2022-10-07T21:54:56.221Z,9.82
2022-10-07T21:57:29.004Z,9.75
2022-10-07T22:00:02.397Z,9.66
2022-10-07T22:02:44.816Z,9.59
2022-10-07T22:05:17.488Z,9.50
2022-10-07T22:08:09.728Z,9.46
2022-10-07T22:10:42.123Z,9.42
2022-10-07T22:13:14.582Z,9.39
2022-10-07T22:15:47.041Z,9.36
2022-10-07T22:18:19.632Z,9.23
2022-10-07T22:20:52.138Z,9.26
2022-10-07T22:23:26.039Z,9.18
2022-10-07T22:26:02.596Z,9.13
2022-10-07T22:28:35.517Z,9.06
2022-10-07T22:31:10.952Z,8.99
2022-10-07T22:33:44.597Z,8.97
2022-10-07T22:36:17.270Z,8.95
2022-10-07T22:38:51.658Z,8.82
2022-10-07T22:41:25.174Z,8.90
2022-10-07T22:43:59.197Z,8.81
2022-10-07T22:46:31.710Z,8.86
2022-10-07T22:49:04.271Z,8.86
2022-10-07T22:51:37.422Z,8.83
2022-10-07T22:54:14.180Z,8.84
2022-10-07T22:56:46.969Z,8.83
2022-10-07T22:59:19.539Z,8.81
2022-10-07T23:01:51.969Z,8.77
2022-10-07T23:04:24.581Z,8.73
2022-10-07T23:06:57.117Z,8.67
2022-10-07T23:09:31.467Z,8.59
2022-10-07T23:12:05.997Z,8.57
2022-10-07T23:14:38.509Z,8.53
2022-10-07T23:17:10.962Z,8.50
2022-10-07T23:19:43.538Z,8.49
2022-10-07T23:22:15.990Z,8.48
2022-10-07T23:24:49.902Z,8.48
2022-10-07T23:27:23.201Z,8.46
2022-10-07T23:29:55.681Z,8.45
2022-10-07T23:32:28.121Z,8.41
2022-10-07T23:35:00.623Z,8.40
2022-10-07T23:37:33.025Z,8.38
2022-10-07T23:40:08.512Z,8.35
2022-10-07T23:42:40.880Z,8.29
2022-10-07T23:45:14.699Z,8.28
2022-10-07T23:47:47.124Z,8.25
2022-10-07T23:50:20.972Z,8.21
2022-10-07T23:52:53.553Z,8.20
2022-10-07T23:55:27.581Z,8.17
2022-10-07T23:58:00.102Z,8.11
